createdAt,value
2017-05-18T00:01:09.809Z,3.82
2017-05-18T00:03:39.213Z,3.93
2017-05-18T00:06:08.644Z,3.70
2017-05-18T00:08:38.777Z,4.07
2017-05-18T00:11:08.199Z,3.78
2017-05-18T00:13:37.600Z,4.15
2017-05-18T00:16:07.144Z,4.57
2017-05-18T00:18:36.536Z,3.93
2017-05-18T00:21:05.945Z,3.73
2017-05-18T00:23:35.371Z,4.12
2017-05-18T00:26:04.761Z,3.85
2017-05-18T00:28:34.213Z,3.77
2017-05-18T00:31:03.613Z,4.28
2017-05-18T00:33:33.065Z,3.95
2017-05-18T00:36:02.455Z,4.25
2017-05-18T00:38:31.907Z,4.02
2017-05-18T00:41:01.305Z,4.17
2017-05-18T00:43:31.478Z,3.70
2017-05-18T00:46:00.867Z,3.97
2017-05-18T00:48:30.291Z,4.03
2017-05-18T00:50:59.689Z,4.53
2017-05-18T00:53:29.131Z,3.80
2017-05-18T00:55:59.270Z,3.68
2017-05-18T00:58:28.692Z,4.47
2017-05-18T01:00:58.112Z,3.78
2017-05-18T01:03:27.539Z,4.70
2017-05-18T01:05:56.932Z,4.72
2017-05-18T01:08:26.404Z,4.12
2017-05-18T01:10:55.805Z,4.30
2017-05-18T01:13:25.277Z,5.05
2017-05-18T01:15:54.681Z,3.98
2017-05-18T01:18:24.113Z,4.27
2017-05-18T01:20:53.524Z,3.67
2017-05-18T01:23:22.961Z,4.22
2017-05-18T01:25:52.361Z,3.95
2017-05-18T01:28:21.780Z,4.37
2017-05-18T01:30:51.919Z,4.35
2017-05-18T01:33:21.346Z,4.65
2017-05-18T01:35:50.049Z,4.33
2017-05-18T01:38:19.478Z,4.32
2017-05-18T01:40:48.878Z,4.88
2017-05-18T01:43:18.319Z,4.45
2017-05-18T01:45:47.715Z,4.60
2017-05-18T01:48:17.154Z,4.47
2017-05-18T01:50:46.546Z,4.47
2017-05-18T01:53:15.969Z,4.85
2017-05-18T01:55:45.364Z,4.60
2017-05-18T01:58:14.789Z,5.10
2017-05-18T02:00:44.180Z,5.18
2017-05-18T02:03:13.596Z,4.67
2017-05-18T02:05:43.017Z,5.25
2017-05-18T02:08:13.196Z,4.42
2017-05-18T02:10:42.593Z,4.72
2017-05-18T02:13:12.018Z,5.32
2017-05-18T02:15:41.457Z,4.80
2017-05-18T02:18:10.848Z,4.88
2017-05-18T02:20:41.017Z,5.40
2017-05-18T02:23:10.409Z,5.18
2017-05-18T02:25:39.826Z,4.32
2017-05-18T02:28:09.220Z,5.12
2017-05-18T02:30:38.648Z,5.00
2017-05-18T02:33:08.037Z,5.72
2017-05-18T02:35:37.463Z,4.72
2017-05-18T02:38:06.865Z,5.87
2017-05-18T02:40:36.293Z,6.18
2017-05-18T02:43:05.685Z,6.22
2017-05-18T02:45:35.857Z,5.58
2017-05-18T02:48:05.257Z,5.50
2017-05-18T02:50:34.676Z,5.70
2017-05-18T02:53:04.068Z,5.60
2017-05-18T02:55:33.493Z,5.05
2017-05-18T02:58:02.885Z,5.32
2017-05-18T03:00:32.306Z,5.48
2017-05-18T03:03:01.696Z,5.10
2017-05-18T03:05:31.125Z,5.75
2017-05-18T03:08:01.257Z,5.08
2017-05-18T03:10:30.680Z,5.67
2017-05-18T03:13:00.069Z,5.32
2017-05-18T03:15:29.516Z,4.90
2017-05-18T03:17:59.185Z,5.22
2017-05-18T03:20:28.639Z,4.65
2017-05-18T03:22:58.037Z,6.40
2017-05-18T03:25:27.457Z,5.22
2017-05-18T03:27:57.592Z,4.37
2017-05-18T03:30:27.017Z,4.93
2017-05-18T03:32:56.427Z,4.10
2017-05-18T03:35:25.849Z,3.98
2017-05-18T03:37:55.245Z,5.05
2017-05-18T03:40:24.313Z,4.33
2017-05-18T03:42:53.745Z,4.38
2017-05-18T03:45:23.136Z,4.23
2017-05-18T03:47:52.556Z,4.48
2017-05-18T03:50:21.945Z,4.50
2017-05-18T03:52:51.365Z,4.95
2017-05-18T03:55:20.807Z,4.08
2017-05-18T03:57:50.191Z,4.62
2017-05-18T04:00:20.385Z,4.83
2017-05-18T04:02:49.771Z,5.20
2017-05-18T04:05:19.187Z,4.65
2017-05-18T04:07:48.581Z,4.40
2017-05-18T04:10:18.013Z,4.33
2017-05-18T04:12:47.406Z,4.73
2017-05-18T04:15:16.836Z,4.60
2017-05-18T04:17:46.968Z,3.63
2017-05-18T04:20:16.389Z,4.25
2017-05-18T04:22:45.781Z,3.65
2017-05-18T04:25:15.208Z,3.65
2017-05-18T04:27:44.606Z,3.27
2017-05-18T04:30:14.038Z,3.42
2017-05-18T04:32:43.439Z,3.38
2017-05-18T04:35:12.905Z,2.72
2017-05-18T04:37:42.296Z,3.53
2017-05-18T04:40:11.711Z,3.52
2017-05-18T04:42:41.109Z,3.95
2017-05-18T04:45:10.540Z,3.32
2017-05-18T04:47:39.938Z,3.30
2017-05-18T04:50:09.369Z,3.10
2017-05-18T04:52:38.805Z,2.82
2017-05-18T04:55:08.202Z,3.02
2017-05-18T04:57:37.613Z,2.83
2017-05-18T05:00:07.004Z,3.12
2017-05-18T05:02:36.440Z,2.97
2017-05-18T05:05:05.841Z,3.43
2017-05-18T05:07:35.278Z,3.45
2017-05-18T05:10:04.708Z,3.42
2017-05-18T05:12:34.096Z,3.10
2017-05-18T05:15:04.308Z,3.50
2017-05-18T05:17:33.697Z,3.22
2017-05-18T05:20:03.152Z,2.85
2017-05-18T05:22:32.549Z,2.83
2017-05-18T05:25:01.994Z,2.78
2017-05-18T05:27:31.452Z,2.58
2017-05-18T05:30:00.876Z,2.42
2017-05-18T05:32:30.261Z,2.45
2017-05-18T05:34:59.688Z,2.48
2017-05-18T05:37:29.088Z,2.52
2017-05-18T05:39:58.539Z,2.63
2017-05-18T05:42:28.672Z,2.45
2017-05-18T05:44:58.905Z,2.42
2017-05-18T05:47:28.297Z,2.72
2017-05-18T05:49:58.459Z,2.68
2017-05-18T05:52:27.882Z,2.67
2017-05-18T05:54:57.279Z,2.22
2017-05-18T05:57:26.693Z,2.82
2017-05-18T05:59:56.129Z,2.98
2017-05-18T06:02:25.528Z,2.72
2017-05-18T06:04:54.960Z,3.05
2017-05-18T06:07:24.355Z,2.87
2017-05-18T06:09:53.781Z,3.23
2017-05-18T06:12:23.229Z,2.53
2017-05-18T06:14:53.426Z,2.87
2017-05-18T06:17:22.820Z,3.08
2017-05-18T06:19:52.244Z,2.90
2017-05-18T06:22:21.677Z,2.32
2017-05-18T06:24:51.114Z,2.53
2017-05-18T06:27:20.562Z,2.45
2017-05-18T06:29:49.961Z,2.63
2017-05-18T06:32:20.137Z,2.70
2017-05-18T06:34:49.532Z,2.48
2017-05-18T06:37:18.970Z,2.37
2017-05-18T06:39:48.365Z,2.62
2017-05-18T06:42:17.786Z,2.68
2017-05-18T06:44:47.264Z,2.75
2017-05-18T06:47:16.662Z,2.75
2017-05-18T06:49:46.081Z,2.53
2017-05-18T06:52:15.513Z,2.97
2017-05-18T06:54:45.647Z,2.73
2017-05-18T06:57:15.095Z,2.53
2017-05-18T06:59:44.498Z,3.43
2017-05-18T07:02:13.925Z,2.55
2017-05-18T07:04:44.072Z,2.87
2017-05-18T07:07:13.496Z,2.85
2017-05-18T07:09:42.901Z,2.42
2017-05-18T07:12:12.325Z,2.70
2017-05-18T07:14:41.725Z,2.73
2017-05-18T07:17:11.157Z,2.72
2017-05-18T07:19:40.548Z,2.78
2017-05-18T07:22:09.973Z,2.62
2017-05-18T07:24:40.106Z,2.63
2017-05-18T07:27:09.534Z,2.78
2017-05-18T07:29:38.928Z,2.80
2017-05-18T07:32:08.343Z,2.73
2017-05-18T07:34:37.781Z,2.58
2017-05-18T07:37:07.171Z,2.55
2017-05-18T07:39:36.605Z,2.73
2017-05-18T07:42:06.738Z,2.72
2017-05-18T07:44:36.167Z,2.32
2017-05-18T07:47:05.618Z,2.52
2017-05-18T07:49:35.069Z,3.53
2017-05-18T07:52:04.472Z,2.83
2017-05-18T07:54:33.901Z,3.72
2017-05-18T07:57:03.347Z,3.28
2017-05-18T07:59:33.304Z,2.90
2017-05-18T08:02:02.732Z,3.20
2017-05-18T08:04:32.120Z,2.53
2017-05-18T08:07:01.553Z,3.02
2017-05-18T08:09:30.953Z,3.12
2017-05-18T08:12:00.429Z,2.30
2017-05-18T08:14:29.833Z,3.30
2017-05-18T08:16:59.260Z,3.18
2017-05-18T08:19:28.664Z,3.05
2017-05-18T08:21:58.104Z,2.90
2017-05-18T08:24:28.172Z,3.00
2017-05-18T08:26:57.610Z,2.67
2017-05-18T08:29:27.753Z,2.92
2017-05-18T08:31:57.191Z,2.62
2017-05-18T08:34:26.612Z,2.70
2017-05-18T08:36:56.004Z,2.73
2017-05-18T08:39:25.666Z,2.27
2017-05-18T08:41:55.073Z,2.20
2017-05-18T08:44:24.502Z,2.40
2017-05-18T08:46:53.905Z,2.70
2017-05-18T08:49:23.332Z,2.35
2017-05-18T08:51:53.814Z,2.33
2017-05-18T08:54:23.239Z,2.42
2017-05-18T08:56:52.641Z,2.32
2017-05-18T08:59:22.082Z,2.35
2017-05-18T09:01:52.215Z,2.42
2017-05-18T09:04:22.380Z,2.40
2017-05-18T09:06:51.778Z,2.40
2017-05-18T09:09:21.200Z,2.70
2017-05-18T09:11:50.596Z,2.70
2017-05-18T09:14:20.049Z,2.88
2017-05-18T09:16:49.452Z,2.67
2017-05-18T09:19:18.877Z,2.33
2017-05-18T09:21:48.267Z,2.40
2017-05-18T09:24:17.730Z,2.65
2017-05-18T09:26:47.124Z,2.40
2017-05-18T09:29:16.551Z,2.52
2017-05-18T09:31:46.685Z,2.92
2017-05-18T09:34:16.117Z,2.72
2017-05-18T09:36:45.504Z,2.45
2017-05-18T09:39:14.955Z,2.35
2017-05-18T09:41:44.353Z,2.70
2017-05-18T09:44:13.804Z,2.52
2017-05-18T09:46:43.201Z,2.77
2017-05-18T09:49:12.625Z,2.23
2017-05-18T09:51:42.069Z,2.38
2017-05-18T09:54:11.497Z,2.55
2017-05-18T09:56:41.633Z,2.80
2017-05-18T09:59:11.058Z,2.45
2017-05-18T10:01:40.476Z,2.63
2017-05-18T10:04:09.908Z,2.50
2017-05-18T10:06:39.301Z,2.35
2017-05-18T10:09:08.734Z,2.50
2017-05-18T10:11:38.127Z,2.12
2017-05-18T10:14:08.293Z,2.40
2017-05-18T10:16:37.710Z,2.55
2017-05-18T10:19:07.105Z,2.50
2017-05-18T10:21:36.540Z,2.55
2017-05-18T10:24:05.924Z,2.40
2017-05-18T10:26:35.171Z,2.80
2017-05-18T10:29:04.580Z,1.98
2017-05-18T10:31:34.000Z,2.40
2017-05-18T10:34:03.428Z,2.08
2017-05-18T10:36:32.926Z,2.25
2017-05-18T10:39:02.316Z,2.22
2017-05-18T10:41:31.748Z,2.50
2017-05-18T10:44:00.962Z,2.27
2017-05-18T10:46:30.248Z,2.13
2017-05-18T10:48:59.639Z,2.05
2017-05-18T10:51:29.061Z,2.20
2017-05-18T10:53:58.136Z,2.32
2017-05-18T10:56:27.189Z,2.22
2017-05-18T10:58:56.613Z,2.07
2017-05-18T11:01:26.044Z,2.20
2017-05-18T11:03:56.173Z,2.50
2017-05-18T11:06:25.596Z,2.40
2017-05-18T11:08:55.729Z,2.27
2017-05-18T11:11:25.169Z,2.10
2017-05-18T11:13:54.623Z,1.90
2017-05-18T11:16:23.740Z,1.78
2017-05-18T11:18:53.153Z,1.85
2017-05-18T11:21:22.573Z,1.90
2017-05-18T11:23:51.998Z,2.12
2017-05-18T11:26:21.437Z,1.88
2017-05-18T11:28:50.836Z,2.02
2017-05-18T11:31:20.267Z,1.93
2017-05-18T11:33:49.669Z,1.98
2017-05-18T11:36:19.115Z,1.93
2017-05-18T11:38:48.528Z,1.78
2017-05-18T11:41:17.993Z,1.85
2017-05-18T11:43:47.389Z,1.72
2017-05-18T11:46:16.815Z,1.92
2017-05-18T11:48:46.205Z,2.05
2017-05-18T11:51:15.676Z,2.38
2017-05-18T11:53:45.077Z,2.28
2017-05-18T11:56:14.501Z,2.30
2017-05-18T11:58:43.917Z,2.80
2017-05-18T12:01:13.341Z,2.48
2017-05-18T12:03:42.748Z,2.55
2017-05-18T12:06:12.170Z,2.33
2017-05-18T12:08:42.305Z,2.42
2017-05-18T12:11:11.736Z,2.37
2017-05-18T12:13:41.144Z,2.12
2017-05-18T12:16:10.561Z,2.47
2017-05-18T12:18:39.952Z,2.13
2017-05-18T12:21:09.368Z,2.30
2017-05-18T12:23:38.752Z,2.35
2017-05-18T12:26:08.170Z,2.52
2017-05-18T12:28:37.596Z,2.28
2017-05-18T12:31:07.777Z,2.63
2017-05-18T12:33:37.196Z,2.55
2017-05-18T12:36:06.623Z,2.55
2017-05-18T12:38:36.767Z,2.42
2017-05-18T12:41:05.844Z,2.48
2017-05-18T12:43:35.989Z,1.88
2017-05-18T12:46:05.426Z,2.48
2017-05-18T12:48:34.828Z,2.73
2017-05-18T12:51:04.257Z,1.97
2017-05-18T12:53:33.649Z,2.37
2017-05-18T12:56:03.072Z,2.27
2017-05-18T12:58:33.208Z,2.32
2017-05-18T13:01:02.640Z,3.38
2017-05-18T13:03:32.032Z,2.08
2017-05-18T13:06:01.460Z,2.25
2017-05-18T13:08:30.856Z,1.78
2017-05-18T13:11:00.877Z,2.37
2017-05-18T13:13:30.929Z,2.40
2017-05-18T13:16:01.109Z,2.00
2017-05-18T13:18:30.501Z,2.12
2017-05-18T13:20:59.929Z,2.53
2017-05-18T13:23:29.321Z,2.17
2017-05-18T13:26:00.277Z,2.48
2017-05-18T13:28:29.665Z,2.10
2017-05-18T13:30:59.097Z,2.12
2017-05-18T13:33:29.232Z,2.05
2017-05-18T13:35:59.400Z,2.10
2017-05-18T13:38:28.801Z,1.95
2017-05-18T13:40:58.232Z,2.60
2017-05-18T13:43:27.632Z,1.87
2017-05-18T13:45:57.066Z,1.88
2017-05-18T13:48:26.461Z,2.02
2017-05-18T13:50:56.645Z,1.90
2017-05-18T13:53:26.044Z,2.35
2017-05-18T13:55:55.479Z,1.92
2017-05-18T13:58:24.868Z,2.20
2017-05-18T14:00:54.326Z,1.95
2017-05-18T14:03:23.731Z,1.90
2017-05-18T14:05:53.172Z,1.90
2017-05-18T14:08:22.580Z,1.78
2017-05-18T14:10:52.020Z,2.12
2017-05-18T14:13:21.422Z,1.88
2017-05-18T14:15:50.855Z,2.02
2017-05-18T14:18:20.285Z,2.03
2017-05-18T14:20:49.679Z,2.20
2017-05-18T14:23:19.145Z,1.98
2017-05-18T14:25:48.539Z,2.35
2017-05-18T14:28:17.990Z,2.27
2017-05-18T14:30:47.383Z,2.17
2017-05-18T14:33:16.808Z,2.93
2017-05-18T14:35:46.200Z,2.78
2017-05-18T14:38:15.657Z,2.85
2017-05-18T14:40:45.051Z,2.30
2017-05-18T14:43:14.484Z,3.02
2017-05-18T14:45:43.888Z,3.50
2017-05-18T14:48:13.135Z,3.30
2017-05-18T14:50:43.277Z,3.00
2017-05-18T14:53:12.708Z,2.93
2017-05-18T14:55:42.104Z,2.87
2017-05-18T14:58:12.218Z,3.10
2017-05-18T15:00:41.607Z,3.17
2017-05-18T15:03:11.027Z,3.05
2017-05-18T15:05:40.437Z,2.83
2017-05-18T15:08:09.874Z,2.88
2017-05-18T15:10:39.284Z,2.92
2017-05-18T15:13:08.739Z,2.57
2017-05-18T15:15:38.151Z,3.35
2017-05-18T15:18:07.592Z,3.12
2017-05-18T15:20:37.732Z,3.78
2017-05-18T15:23:07.179Z,3.82
2017-05-18T15:25:36.605Z,4.02
2017-05-18T15:28:06.073Z,3.47
2017-05-18T15:30:35.488Z,4.20
2017-05-18T15:33:04.960Z,3.88
2017-05-18T15:35:34.394Z,2.88
2017-05-18T15:38:03.843Z,4.72
2017-05-18T15:40:33.259Z,3.63
2017-05-18T15:43:02.750Z,4.12
2017-05-18T15:45:32.932Z,3.70
2017-05-18T15:48:02.336Z,3.02
2017-05-18T15:50:31.770Z,3.50
2017-05-18T15:53:01.904Z,3.75
2017-05-18T15:55:31.361Z,4.17
2017-05-18T15:58:00.764Z,4.20
2017-05-18T16:00:30.457Z,4.75
2017-05-18T16:02:59.871Z,3.78
2017-05-18T16:05:29.305Z,3.80
2017-05-18T16:07:59.461Z,3.70
2017-05-18T16:10:28.926Z,3.78
2017-05-18T16:12:59.120Z,3.40
2017-05-18T16:15:28.552Z,3.97
2017-05-18T16:17:58.701Z,3.55
2017-05-18T16:20:28.140Z,3.55
2017-05-18T16:22:57.608Z,3.92
2017-05-18T16:25:27.024Z,3.50
2017-05-18T16:27:56.451Z,3.75
2017-05-18T16:30:25.879Z,3.62
2017-05-18T16:32:55.268Z,3.40
2017-05-18T16:35:24.693Z,3.57
2017-05-18T16:37:54.863Z,3.20
2017-05-18T16:40:24.948Z,3.32
2017-05-18T16:42:54.394Z,3.18
2017-05-18T16:45:23.811Z,3.20
2017-05-18T16:47:53.292Z,3.08
2017-05-18T16:50:22.709Z,3.38
2017-05-18T16:52:52.186Z,2.98
2017-05-18T16:55:21.588Z,3.33
2017-05-18T16:57:51.032Z,3.05
2017-05-18T17:00:20.451Z,3.00
2017-05-18T17:02:50.635Z,2.83
2017-05-18T17:05:20.042Z,3.35
2017-05-18T17:07:49.469Z,2.97
2017-05-18T17:10:18.909Z,3.30
2017-05-18T17:12:48.305Z,3.47
2017-05-18T17:15:17.732Z,3.12
2017-05-18T17:17:47.145Z,3.13
2017-05-18T17:20:16.637Z,3.62
2017-05-18T17:22:46.047Z,3.25
2017-05-18T17:25:15.480Z,3.77
2017-05-18T17:27:44.888Z,3.48
2017-05-18T17:30:14.320Z,3.57
2017-05-18T17:32:43.721Z,3.57
2017-05-18T17:35:13.161Z,3.95
2017-05-18T17:37:42.553Z,3.90
2017-05-18T17:40:11.976Z,3.73
2017-05-18T17:42:41.205Z,3.80
2017-05-18T17:45:10.657Z,4.33
2017-05-18T17:47:40.070Z,4.40
2017-05-18T17:50:09.545Z,4.97
2017-05-18T17:52:38.951Z,4.62
2017-05-18T17:55:08.395Z,4.75
2017-05-18T17:57:37.793Z,4.25
2017-05-18T18:00:07.227Z,4.58
2017-05-18T18:02:37.387Z,4.92
2017-05-18T18:05:06.831Z,5.07
2017-05-18T18:07:36.229Z,4.63
2017-05-18T18:10:06.337Z,5.10
2017-05-18T18:12:35.766Z,4.98
2017-05-18T18:15:05.193Z,5.10
2017-05-18T18:17:35.337Z,4.73
2017-05-18T18:20:04.818Z,4.72
2017-05-18T18:22:34.975Z,4.55
2017-05-18T18:25:04.374Z,4.38
2017-05-18T18:27:33.882Z,5.48
2017-05-18T18:30:03.284Z,5.28
2017-05-18T18:32:32.737Z,5.38
2017-05-18T18:35:02.888Z,5.60
2017-05-18T18:37:32.326Z,5.35
2017-05-18T18:40:01.745Z,5.78
2017-05-18T18:42:31.233Z,5.58
2017-05-18T18:45:00.662Z,9.97
2017-05-18T18:47:30.873Z,10.23
2017-05-18T18:50:00.292Z,6.60
2017-05-18T18:52:30.498Z,5.47
2017-05-18T18:54:59.889Z,6.23
2017-05-18T18:57:29.148Z,6.22
2017-05-18T18:59:58.381Z,7.30
2017-05-18T19:02:27.841Z,5.68
2017-05-18T19:04:57.235Z,5.53
2017-05-18T19:07:26.674Z,6.02
2017-05-18T19:09:56.091Z,6.17
2017-05-18T19:12:25.549Z,6.88
2017-05-18T19:14:55.141Z,6.98
2017-05-18T19:17:24.589Z,7.12
2017-05-18T19:19:53.990Z,7.07
2017-05-18T19:22:23.436Z,7.22
2017-05-18T19:24:53.390Z,7.50
2017-05-18T19:27:22.829Z,7.60
2017-05-18T19:29:51.882Z,7.90
2017-05-18T19:32:21.329Z,7.43
2017-05-18T19:34:50.729Z,8.13
2017-05-18T19:37:20.153Z,7.55
2017-05-18T19:39:50.296Z,7.45
2017-05-18T19:42:19.724Z,6.90
2017-05-18T19:44:49.124Z,6.80
2017-05-18T19:47:18.566Z,7.58
2017-05-18T19:49:47.786Z,8.02
2017-05-18T19:52:17.979Z,9.48
2017-05-18T19:54:47.402Z,9.12
2017-05-18T19:57:17.583Z,8.97
2017-05-18T19:59:46.992Z,8.02
2017-05-18T20:02:16.422Z,8.77
2017-05-18T20:04:46.600Z,7.90
2017-05-18T20:07:16.007Z,9.43
2017-05-18T20:09:45.477Z,9.23
2017-05-18T20:12:14.906Z,9.57
2017-05-18T20:14:44.350Z,9.18
2017-05-18T20:17:14.507Z,9.22
2017-05-18T20:19:43.977Z,8.28
2017-05-18T20:22:14.128Z,8.90
2017-05-18T20:24:43.564Z,9.65
2017-05-18T20:27:12.985Z,9.48
2017-05-18T20:29:42.412Z,8.82
2017-05-18T20:32:12.550Z,7.63
2017-05-18T20:34:41.997Z,9.18
2017-05-18T20:37:11.399Z,9.07
2017-05-18T20:39:40.817Z,7.67
2017-05-18T20:42:11.031Z,9.30
2017-05-18T20:44:40.449Z,6.82
2017-05-18T20:47:09.893Z,5.92
2017-05-18T20:49:39.285Z,5.40
2017-05-18T20:52:08.736Z,8.78
2017-05-18T20:54:38.148Z,8.13
2017-05-18T20:57:07.593Z,8.17
2017-05-18T20:59:37.004Z,9.05
2017-05-18T21:02:06.443Z,8.80
2017-05-18T21:04:35.884Z,8.27
2017-05-18T21:07:06.017Z,7.63
2017-05-18T21:09:35.477Z,7.53
2017-05-18T21:12:04.876Z,6.98
2017-05-18T21:14:34.335Z,7.73
2017-05-18T21:17:03.748Z,8.40
2017-05-18T21:19:33.185Z,8.77
2017-05-18T21:22:02.581Z,6.62
2017-05-18T21:24:32.014Z,8.38
2017-05-18T21:27:02.194Z,9.75
2017-05-18T21:29:31.634Z,10.35
2017-05-18T21:32:01.796Z,10.97
2017-05-18T21:34:31.248Z,11.77
2017-05-18T21:37:00.668Z,10.92
2017-05-18T21:39:30.844Z,12.20
2017-05-18T21:42:00.255Z,12.88
2017-05-18T21:44:29.713Z,13.22
2017-05-18T21:46:59.119Z,10.17
2017-05-18T21:49:28.561Z,10.13
2017-05-18T21:51:57.981Z,11.35
2017-05-18T21:54:27.444Z,12.50
2017-05-18T21:56:56.874Z,11.68
2017-05-18T21:59:26.317Z,10.43
2017-05-18T22:01:56.497Z,12.87
2017-05-18T22:04:25.906Z,11.78
2017-05-18T22:06:55.368Z,12.70
2017-05-18T22:09:24.785Z,11.98
2017-05-18T22:11:54.228Z,11.33
2017-05-18T22:14:23.685Z,10.05
2017-05-18T22:16:53.091Z,8.30
2017-05-18T22:19:22.555Z,9.97
2017-05-18T22:21:52.717Z,11.03
2017-05-18T22:24:22.162Z,15.15
2017-05-18T22:26:52.637Z,12.30
2017-05-18T22:29:22.086Z,11.50
2017-05-18T22:31:51.496Z,12.22
2017-05-18T22:34:20.932Z,14.72
2017-05-18T22:36:51.019Z,13.17
2017-05-18T22:39:20.517Z,11.95
2017-05-18T22:41:49.979Z,14.37
2017-05-18T22:44:19.462Z,17.87
2017-05-18T22:46:48.864Z,14.27
2017-05-18T22:49:18.330Z,14.57
2017-05-18T22:51:47.748Z,15.63
2017-05-18T22:54:17.925Z,15.73
2017-05-18T22:56:47.327Z,18.00
2017-05-18T22:59:16.761Z,15.60
2017-05-18T23:01:46.238Z,15.97
2017-05-18T23:04:15.683Z,15.65
2017-05-18T23:06:45.867Z,17.58
2017-05-18T23:09:15.276Z,15.10
2017-05-18T23:11:44.728Z,14.47
2017-05-18T23:14:14.136Z,14.62
2017-05-18T23:16:44.540Z,16.00
2017-05-18T23:19:14.690Z,16.67
2017-05-18T23:21:44.132Z,16.20
2017-05-18T23:24:13.555Z,15.57
2017-05-18T23:26:43.744Z,13.33
2017-05-18T23:29:13.169Z,14.17
2017-05-18T23:31:42.612Z,15.65
2017-05-18T23:34:12.026Z,13.77
2017-05-18T23:36:41.468Z,15.47
2017-05-18T23:39:10.867Z,14.78
2017-05-18T23:41:40.317Z,14.85
2017-05-18T23:44:09.741Z,13.75
2017-05-18T23:46:40.167Z,12.15
2017-05-18T23:49:09.587Z,12.35
2017-05-18T23:51:39.017Z,14.55
2017-05-18T23:54:08.773Z,12.18
2017-05-18T23:56:38.243Z,15.13
2017-05-18T23:59:08.481Z,14.30
